Time;durP1;ratioP1;P1;durP2;ratioP2;P2;SDS_P1;SDS_P2;PMS_P1;PMS_P2;Temp;Humidity;BMP_temperature;BMP_pressure;BME280_temperature;BME280_humidity;BME280_pressure;Samples;Min_cycle;Max_cycle;Signal;HPM_P1;HPM_P2
2021/05/08 00:01:19;;;;;;;8.73;5.83;;;8.30;99.90;;;;;;4193377;28;20520;-73
2021/05/08 00:03:19;;;;;;;7.07;5.57;;;8.30;99.90;;;;;;4193161;28;20033;-73
2021/05/08 00:05:20;;;;;;;9.07;6.38;;;8.30;99.90;;;;;;4192553;28;20529;-73
2021/05/08 00:07:20;;;;;;;8.00;5.78;;;8.30;99.90;;;;;;4191346;28;20065;-73
2021/05/08 00:09:21;;;;;;;8.70;5.68;;;8.30;99.90;;;;;;4193257;28;20379;-73
2021/05/08 00:11:21;;;;;;;6.90;5.18;;;8.30;99.90;;;;;;4193095;28;20450;-73
2021/05/08 00:13:22;;;;;;;8.45;5.45;;;8.30;99.90;;;;;;4193136;28;20068;-73
2021/05/08 00:15:25;;;;;;;8.07;5.85;;;8.30;99.90;;;;;;4192549;28;20032;-73
2021/05/08 00:17:25;;;;;;;9.85;5.93;;;8.30;99.90;;;;;;4192230;28;20037;-73
2021/05/08 00:19:26;;;;;;;7.50;5.28;;;8.30;99.90;;;;;;4193192;28;20115;-73
2021/05/08 00:21:27;;;;;;;7.35;5.80;;;8.30;99.90;;;;;;4193135;28;20040;-73
2021/05/08 00:23:27;;;;;;;8.32;5.60;;;8.30;99.90;;;;;;4192420;28;20106;-73
2021/05/08 00:25:28;;;;;;;7.15;5.28;;;8.20;99.90;;;;;;4192605;28;20562;-74
2021/05/08 00:27:28;;;;;;;8.10;5.53;;;8.20;99.90;;;;;;4191282;28;20037;-73
2021/05/08 00:29:29;;;;;;;8.25;5.90;;;8.20;99.90;;;;;;4174321;28;20088;-73
2021/05/08 00:31:30;;;;;;;8.15;5.68;;;8.20;99.90;;;;;;4191062;28;20074;-73
2021/05/08 00:33:31;;;;;;;7.63;5.30;;;8.20;99.90;;;;;;4192467;28;20029;-73
2021/05/08 00:35:31;;;;;;;7.75;5.40;;;8.20;99.90;;;;;;4191932;28;20060;-74
2021/05/08 00:37:32;;;;;;;8.48;5.97;;;8.10;99.90;;;;;;4192501;28;20035;-73
2021/05/08 00:39:32;;;;;;;8.50;6.38;;;8.10;99.90;;;;;;4192629;28;20039;-73
2021/05/08 00:41:33;;;;;;;8.60;6.22;;;8.10;99.90;;;;;;4192306;28;20048;-73
2021/05/08 00:43:34;;;;;;;8.45;5.57;;;8.10;99.90;;;;;;4192084;28;20040;-73
2021/05/08 00:45:34;;;;;;;8.77;5.63;;;8.10;99.90;;;;;;4192118;28;20025;-74
2021/05/08 00:47:42;;;;;;;6.18;4.90;;;8.10;99.90;;;;;;4190721;28;20123;-73
2021/05/08 00:49:45;;;;;;;8.60;5.57;;;8.10;99.90;;;;;;4192328;28;20082;-74
2021/05/08 00:51:47;;;;;;;7.85;5.30;;;8.10;99.90;;;;;;4192646;28;20365;-73
2021/05/08 00:53:47;;;;;;;7.50;5.72;;;8.00;99.90;;;;;;4192445;28;20028;-73
2021/05/08 00:55:48;;;;;;;8.13;5.70;;;8.00;99.90;;;;;;4191219;28;20120;-73
2021/05/08 00:57:49;;;;;;;15.55;7.10;;;8.00;99.90;;;;;;4193185;28;20024;-73
2021/05/08 00:59:49;;;;;;;9.43;6.43;;;8.00;99.90;;;;;;4192495;28;20052;-73
2021/05/08 01:01:50;;;;;;;8.98;6.45;;;7.90;99.90;;;;;;4193042;28;20024;-74
2021/05/08 01:03:51;;;;;;;8.40;6.25;;;7.90;99.90;;;;;;4192662;28;20040;-74
2021/05/08 01:05:51;;;;;;;7.05;5.43;;;7.90;99.90;;;;;;4191131;28;20078;-73
2021/05/08 01:07:54;;;;;;;8.63;6.20;;;7.90;99.90;;;;;;4192722;28;20048;-73
2021/05/08 01:09:55;;;;;;;7.90;5.25;;;7.90;99.90;;;;;;4192694;28;20086;-73
2021/05/08 01:11:56;;;;;;;7.07;5.13;;;7.90;99.90;;;;;;4192471;28;20033;-74
2021/05/08 01:13:57;;;;;;;8.00;5.55;;;7.90;99.90;;;;;;4192105;28;20202;-74
2021/05/08 01:15:57;;;;;;;8.27;5.53;;;7.80;99.90;;;;;;4191827;28;20029;-74
2021/05/08 01:17:58;;;;;;;9.48;5.15;;;7.80;99.90;;;;;;4191880;28;20697;-73
2021/05/08 01:19:59;;;;;;;7.80;5.47;;;7.80;99.90;;;;;;4187815;28;20544;-73
2021/05/08 01:22:00;;;;;;;6.72;5.45;;;7.80;99.90;;;;;;4192107;28;20036;-73
2021/05/08 01:24:01;;;;;;;8.35;5.75;;;7.80;99.90;;;;;;4190339;28;20473;-73
2021/05/08 01:26:02;;;;;;;7.03;5.35;;;7.80;99.90;;;;;;4190127;28;20075;-73
2021/05/08 01:28:03;;;;;;;7.20;5.45;;;7.70;99.90;;;;;;4190596;28;20040;-73
2021/05/08 01:30:06;;;;;;;6.05;4.60;;;7.70;99.90;;;;;;4192000;28;20024;-74
2021/05/08 01:32:07;;;;;;;6.45;5.07;;;7.70;99.90;;;;;;4192246;28;20435;-73
2021/05/08 01:34:08;;;;;;;6.20;4.80;;;7.60;99.90;;;;;;4188417;28;20071;-73
2021/05/08 01:36:08;;;;;;;8.10;5.55;;;7.60;99.90;;;;;;4190258;28;20043;-73
2021/05/08 01:38:09;;;;;;;7.18;5.45;;;7.60;99.90;;;;;;4190395;28;20028;-73
2021/05/08 01:40:13;;;;;;;8.10;5.47;;;7.60;99.90;;;;;;4190011;28;20342;-73
2021/05/08 01:42:13;;;;;;;7.80;6.10;;;7.60;99.90;;;;;;4190549;28;20626;-73
2021/05/08 01:44:14;;;;;;;9.73;6.38;;;7.60;99.90;;;;;;4191679;28;20120;-73
2021/05/08 01:46:14;;;;;;;8.65;6.00;;;7.50;99.90;;;;;;4190769;28;20037;-73
2021/05/08 01:48:15;;;;;;;7.47;5.30;;;7.60;99.90;;;;;;4190372;28;20024;-73
2021/05/08 01:50:24;;;;;;;7.10;5.55;;;7.50;99.90;;;;;;4190364;28;20118;-74
2021/05/08 01:52:24;;;;;;;6.60;4.65;;;7.60;99.90;;;;;;4191785;28;20108;-74
2021/05/08 01:54:25;;;;;;;7.28;4.93;;;7.60;99.90;;;;;;4173406;28;20029;-73
2021/05/08 01:56:25;;;;;;;10.30;5.57;;;7.50;99.90;;;;;;4190195;28;20369;-73
2021/05/08 01:58:27;;;;;;;8.63;5.47;;;7.50;99.90;;;;;;4191492;28;20103;-74
2021/05/08 02:00:36;;;;;;;7.75;5.53;;;7.50;99.90;;;;;;4192955;28;20064;-73
2021/05/08 02:02:37;;;;;;;7.80;5.40;;;7.50;99.90;;;;;;4195338;28;20044;-74
2021/05/08 02:04:39;;;;;;;7.40;5.40;;;7.50;99.90;;;;;;4195032;28;20506;-74
2021/05/08 02:06:41;;;;;;;7.28;5.63;;;7.50;99.90;;;;;;4171722;28;20031;-73
2021/05/08 02:08:42;;;;;;;6.05;5.00;;;7.50;99.90;;;;;;4195263;28;20029;-73
2021/05/08 02:10:44;;;;;;;7.55;5.65;;;7.50;99.90;;;;;;4193464;28;20039;-74
2021/05/08 02:12:44;;;;;;;6.72;5.38;;;7.40;99.90;;;;;;4193740;28;20029;-73
2021/05/08 02:14:45;;;;;;;6.28;5.10;;;7.40;99.90;;;;;;4194854;28;20089;-73
2021/05/08 02:16:45;;;;;;;8.30;5.63;;;7.40;99.90;;;;;;4194805;28;20088;-73
2021/05/08 02:18:46;;;;;;;7.20;5.43;;;7.30;99.90;;;;;;4195341;28;20476;-74
2021/05/08 02:20:47;;;;;;;8.38;5.65;;;7.30;99.90;;;;;;4193286;28;20052;-73
2021/05/08 02:22:48;;;;;;;8.68;6.20;;;7.30;99.90;;;;;;4192141;28;20472;-74
2021/05/08 02:24:48;;;;;;;11.13;6.47;;;7.30;99.90;;;;;;4194510;28;20031;-74
2021/05/08 02:26:49;;;;;;;11.35;6.43;;;7.30;99.90;;;;;;4194767;28;20143;-74
2021/05/08 02:28:49;;;;;;;8.65;6.18;;;7.20;99.90;;;;;;4193369;28;20142;-73
2021/05/08 02:30:50;;;;;;;11.10;6.60;;;7.30;99.90;;;;;;4176703;28;20528;-74
2021/05/08 02:32:52;;;;;;;8.98;6.85;;;7.20;99.90;;;;;;4195103;28;20032;-74
2021/05/08 02:34:52;;;;;;;10.68;6.82;;;7.20;99.90;;;;;;4192790;28;20044;-74
2021/05/08 02:36:53;;;;;;;8.13;6.72;;;7.20;99.90;;;;;;4194969;28;20043;-73
2021/05/08 02:38:53;;;;;;;13.98;7.80;;;7.20;99.90;;;;;;4194734;28;20033;-73
2021/05/08 02:40:54;;;;;;;12.15;7.32;;;7.20;99.90;;;;;;4192851;28;20024;-73
2021/05/08 02:42:55;;;;;;;11.68;8.18;;;7.20;99.90;;;;;;4193033;28;20044;-73
2021/05/08 02:44:56;;;;;;;9.52;6.57;;;7.20;99.90;;;;;;4194136;28;20794;-74
2021/05/08 02:46:56;;;;;;;8.10;5.53;;;7.30;99.90;;;;;;4179023;28;20090;-74
2021/05/08 02:48:57;;;;;;;10.60;7.03;;;7.30;99.90;;;;;;4190160;28;20036;-73
2021/05/08 02:50:59;;;;;;;9.00;6.60;;;7.30;99.90;;;;;;4194639;28;20085;-73
2021/05/08 02:52:59;;;;;;;8.93;6.40;;;7.30;99.90;;;;;;4193117;28;20044;-74
2021/05/08 02:55:00;;;;;;;9.68;6.93;;;7.30;99.90;;;;;;4193779;28;20511;-73
2021/05/08 02:57:01;;;;;;;10.02;6.90;;;7.40;99.90;;;;;;4194364;28;20442;-74
2021/05/08 02:59:02;;;;;;;12.00;7.47;;;7.40;99.90;;;;;;4194540;28;20036;-74
2021/05/08 03:01:02;;;;;;;11.75;7.45;;;7.40;99.90;;;;;;4175753;28;20120;-74
2021/05/08 03:03:03;;;;;;;10.73;7.13;;;7.40;99.90;;;;;;4191958;28;20172;-74
2021/05/08 03:05:05;;;;;;;8.93;6.90;;;7.50;99.90;;;;;;4192406;28;20030;-74
2021/05/08 03:07:05;;;;;;;11.20;7.40;;;7.50;99.90;;;;;;4194102;28;20024;-74
2021/05/08 03:09:06;;;;;;;11.43;7.45;;;7.50;99.90;;;;;;4193437;28;20702;-74
2021/05/08 03:11:07;;;;;;;10.57;7.50;;;7.50;99.90;;;;;;4192799;28;20116;-74
2021/05/08 03:13:07;;;;;;;11.88;8.70;;;7.50;99.90;;;;;;4190956;28;20048;-73
2021/05/08 03:15:09;;;;;;;12.75;8.77;;;7.60;99.90;;;;;;4191958;28;20032;-74
2021/05/08 03:17:09;;;;;;;13.05;8.75;;;7.60;99.90;;;;;;4194117;28;20033;-73
2021/05/08 03:19:10;;;;;;;12.77;8.38;;;7.60;99.90;;;;;;4194489;28;20029;-74
2021/05/08 03:21:11;;;;;;;10.88;7.72;;;7.60;99.90;;;;;;4175410;28;20033;-74
2021/05/08 03:23:12;;;;;;;12.45;8.52;;;7.70;99.90;;;;;;4191927;28;20790;-74
2021/05/08 03:25:12;;;;;;;11.50;7.57;;;7.70;99.90;;;;;;4193168;28;20604;-74
2021/05/08 03:27:13;;;;;;;10.45;7.95;;;7.70;99.90;;;;;;4191547;28;20036;-74
2021/05/08 03:29:15;;;;;;;10.20;7.35;;;7.80;99.90;;;;;;4191647;28;20473;-74
2021/05/08 03:31:15;;;;;;;13.65;9.27;;;7.80;99.90;;;;;;4193673;28;20082;-74
2021/05/08 03:33:16;;;;;;;11.65;8.15;;;7.80;99.90;;;;;;4175311;28;20021;-74
2021/05/08 03:35:17;;;;;;;11.82;8.25;;;7.80;99.90;;;;;;4191442;28;20086;-73
2021/05/08 03:37:18;;;;;;;12.55;8.48;;;7.80;99.90;;;;;;4193754;28;20480;-74
2021/05/08 03:39:18;;;;;;;11.35;8.38;;;7.80;99.90;;;;;;4193535;28;20056;-73
2021/05/08 03:41:20;;;;;;;12.40;9.18;;;7.80;99.90;;;;;;4191942;28;20036;-73
2021/05/08 03:43:21;;;;;;;11.00;8.85;;;7.80;99.90;;;;;;4192286;28;20116;-73
2021/05/08 03:45:22;;;;;;;13.05;9.10;;;7.80;99.90;;;;;;4191501;28;20033;-73
2021/05/08 03:47:22;;;;;;;16.80;10.27;;;7.70;99.90;;;;;;4191690;28;20059;-73
2021/05/08 03:49:23;;;;;;;14.13;9.85;;;7.70;99.90;;;;;;4193429;28;20048;-74
2021/05/08 03:51:24;;;;;;;13.95;9.27;;;7.70;99.90;;;;;;4191728;28;20033;-74
2021/05/08 03:53:25;;;;;;;12.37;8.93;;;7.70;99.90;;;;;;4193815;28;20082;-74
2021/05/08 03:55:26;;;;;;;13.82;9.35;;;7.70;99.90;;;;;;4193356;28;20037;-73
2021/05/08 03:57:26;;;;;;;14.65;9.30;;;7.70;99.90;;;;;;4187118;28;20112;-73
2021/05/08 03:59:27;;;;;;;15.05;9.60;;;7.70;99.90;;;;;;4177443;28;20040;-73
2021/05/08 04:01:28;;;;;;;14.93;9.10;;;7.70;99.90;;;;;;4177040;28;20112;-73
2021/05/08 04:03:28;;;;;;;15.77;9.15;;;7.60;99.90;;;;;;4175227;28;20462;-73
2021/05/08 04:05:30;;;;;;;14.07;8.70;;;7.60;99.90;;;;;;4180402;28;20037;-74
2021/05/08 04:07:30;;;;;;;15.95;9.60;;;7.60;99.90;;;;;;4193341;28;20464;-73
2021/05/08 04:09:31;;;;;;;15.35;10.25;;;7.60;99.90;;;;;;4193741;28;20036;-73
2021/05/08 04:11:32;;;;;;;12.68;8.88;;;7.60;99.90;;;;;;4192258;28;20040;-73
2021/05/08 04:13:32;;;;;;;13.57;9.43;;;7.60;99.90;;;;;;4191881;28;20090;-74
2021/05/08 04:15:33;;;;;;;15.35;10.02;;;7.50;99.90;;;;;;4192493;28;20052;-73
2021/05/08 04:17:34;;;;;;;13.63;9.50;;;7.40;99.90;;;;;;4191691;28;20117;-73
2021/05/08 04:19:34;;;;;;;18.98;11.13;;;7.40;99.90;;;;;;4192012;28;20043;-74
2021/05/08 04:21:35;;;;;;;18.40;10.80;;;7.40;99.90;;;;;;4193318;28;20504;-73
2021/05/08 04:23:35;;;;;;;19.83;10.70;;;7.30;99.90;;;;;;4192418;28;20040;-73
2021/05/08 04:25:36;;;;;;;16.75;10.50;;;7.30;99.90;;;;;;4192992;28;20032;-73
2021/05/08 04:27:37;;;;;;;17.23;9.80;;;7.20;99.90;;;;;;4193250;28;20113;-74
2021/05/08 04:29:37;;;;;;;17.75;10.57;;;7.20;99.90;;;;;;4193219;28;20040;-73
2021/05/08 04:31:38;;;;;;;14.93;9.95;;;7.10;99.90;;;;;;4193245;28;20402;-74
2021/05/08 04:33:39;;;;;;;18.50;10.20;;;7.20;99.90;;;;;;4190934;28;20025;-73
2021/05/08 04:35:39;;;;;;;15.50;10.50;;;7.20;99.90;;;;;;4193174;28;20426;-73
2021/05/08 04:37:40;;;;;;;18.45;10.70;;;7.20;99.90;;;;;;4193158;28;20025;-73
2021/05/08 04:39:40;;;;;;;13.35;9.00;;;7.10;99.90;;;;;;4191869;28;20439;-73
2021/05/08 04:41:41;;;;;;;17.30;10.32;;;7.10;99.90;;;;;;4192378;28;20072;-73
2021/05/08 04:43:42;;;;;;;15.45;9.93;;;7.10;99.90;;;;;;4192430;28;20036;-74
2021/05/08 04:45:42;;;;;;;16.33;8.82;;;7.10;99.90;;;;;;4193126;28;20036;-74
2021/05/08 04:47:43;;;;;;;16.13;9.70;;;7.20;99.90;;;;;;4192753;28;20028;-73
2021/05/08 04:49:43;;;;;;;16.10;10.38;;;7.20;99.90;;;;;;4192617;28;20589;-73
2021/05/08 04:51:44;;;;;;;20.65;10.65;;;7.20;99.90;;;;;;4192551;28;20020;-73
2021/05/08 04:53:45;;;;;;;16.45;10.55;;;7.20;99.90;;;;;;4192159;28;20104;-73
2021/05/08 04:55:46;;;;;;;18.67;11.15;;;7.20;99.90;;;;;;4192218;28;20036;-73
2021/05/08 04:57:47;;;;;;;20.35;10.57;;;7.10;99.90;;;;;;4191087;28;20439;-73
2021/05/08 04:59:48;;;;;;;17.08;11.05;;;7.20;99.90;;;;;;4192550;28;20028;-74
2021/05/08 05:01:49;;;;;;;23.23;10.65;;;7.20;99.90;;;;;;4192508;28;20384;-73
2021/05/08 05:03:49;;;;;;;16.95;10.55;;;7.20;99.90;;;;;;4192202;28;20021;-73
2021/05/08 05:05:50;;;;;;;15.63;11.13;;;7.20;99.90;;;;;;4192327;28;20115;-74
2021/05/08 05:07:50;;;;;;;19.25;11.85;;;7.20;99.90;;;;;;4192086;28;20032;-73
2021/05/08 05:09:51;;;;;;;19.67;11.85;;;7.20;99.90;;;;;;4192279;28;20033;-73
2021/05/08 05:11:52;;;;;;;17.08;11.75;;;7.00;99.90;;;;;;4192240;28;20123;-73
2021/05/08 05:13:52;;;;;;;17.15;10.93;;;7.10;99.90;;;;;;4192292;28;20170;-74
2021/05/08 05:15:53;;;;;;;14.98;10.38;;;7.00;99.90;;;;;;4192450;28;20040;-74
2021/05/08 05:17:54;;;;;;;16.90;10.48;;;7.00;99.90;;;;;;4192483;28;20032;-73
2021/05/08 05:19:55;;;;;;;16.38;10.68;;;7.00;99.90;;;;;;4190713;28;20032;-73
2021/05/08 05:21:55;;;;;;;14.23;9.82;;;7.00;99.90;;;;;;4190605;28;20041;-74
2021/05/08 05:23:56;;;;;;;15.15;9.77;;;7.10;99.90;;;;;;4181140;28;20039;-73
2021/05/08 05:25:57;;;;;;;15.35;9.73;;;7.10;99.90;;;;;;4193671;28;20047;-73
2021/05/08 05:27:57;;;;;;;16.02;9.20;;;7.20;99.90;;;;;;4191396;28;20033;-73
2021/05/08 05:29:59;;;;;;;18.55;10.50;;;7.20;99.90;;;;;;4191240;28;20464;-73
2021/05/08 05:31:59;;;;;;;15.05;9.25;;;7.20;99.90;;;;;;4194707;28;20033;-73
2021/05/08 05:34:00;;;;;;;16.33;9.27;;;7.20;99.90;;;;;;4193448;28;20090;-73
2021/05/08 05:36:01;;;;;;;14.60;8.82;;;7.30;99.90;;;;;;4167452;28;20054;-73
2021/05/08 05:38:02;;;;;;;15.77;9.77;;;7.30;99.90;;;;;;4186410;28;20044;-74
2021/05/08 05:40:03;;;;;;;11.82;8.32;;;7.30;99.90;;;;;;4197298;28;20525;-74
2021/05/08 05:42:04;;;;;;;14.10;8.18;;;7.40;99.90;;;;;;4192962;28;20094;-73
2021/05/08 05:44:06;;;;;;;14.70;9.20;;;7.40;99.90;;;;;;4200625;28;20044;-73
2021/05/08 05:46:06;;;;;;;14.60;8.80;;;7.40;99.90;;;;;;4192946;28;20056;-73
2021/05/08 05:48:08;;;;;;;12.30;8.27;;;7.40;99.90;;;;;;4203375;28;20040;-73
2021/05/08 05:50:08;;;;;;;13.30;8.68;;;7.50;99.90;;;;;;4198255;28;20071;-73
2021/05/08 05:52:10;;;;;;;11.27;8.25;;;7.50;99.90;;;;;;4199187;28;20157;-73
2021/05/08 05:54:11;;;;;;;13.07;8.95;;;7.50;99.90;;;;;;4192551;28;20115;-73
2021/05/08 05:56:11;;;;;;;13.50;8.75;;;7.60;99.90;;;;;;4190597;28;20033;-73
2021/05/08 05:58:12;;;;;;;19.02;9.55;;;7.60;99.90;;;;;;4199047;28;20025;-73
2021/05/08 06:00:14;;;;;;;12.00;8.55;;;7.60;99.90;;;;;;4200799;28;20033;-73
2021/05/08 06:02:14;;;;;;;11.35;7.90;;;7.70;99.90;;;;;;4198880;28;20107;-73
2021/05/08 06:04:15;;;;;;;12.45;8.05;;;7.80;99.90;;;;;;4192788;28;20035;-73
2021/05/08 06:06:16;;;;;;;14.68;9.15;;;7.90;99.90;;;;;;4191952;28;20021;-73
2021/05/08 06:08:16;;;;;;;11.23;7.93;;;7.90;99.90;;;;;;4206821;28;20024;-73
2021/05/08 06:10:17;;;;;;;11.95;7.47;;;8.00;99.90;;;;;;4198951;28;20032;-73
2021/05/08 06:12:17;;;;;;;13.57;8.98;;;8.10;99.90;;;;;;4199087;28;20024;-73
2021/05/08 06:14:19;;;;;;;11.68;7.90;;;8.20;99.90;;;;;;4191023;28;20385;-73
2021/05/08 06:16:19;;;;;;;12.57;8.00;;;8.30;99.90;;;;;;4181701;28;20037;-73
2021/05/08 06:18:20;;;;;;;15.07;8.15;;;8.50;99.90;;;;;;4179191;28;20166;-73
2021/05/08 06:20:20;;;;;;;13.10;8.73;;;8.50;99.90;;;;;;4185279;28;20044;-74
2021/05/08 06:22:21;;;;;;;11.80;7.85;;;8.60;99.90;;;;;;4182598;28;20037;-73
2021/05/08 06:24:22;;;;;;;14.95;7.90;;;8.70;99.90;;;;;;4184835;28;20431;-74
2021/05/08 06:26:22;;;;;;;16.85;8.07;;;8.70;99.90;;;;;;4190357;28;20031;-73
2021/05/08 06:28:23;;;;;;;11.52;7.82;;;8.80;99.90;;;;;;4189227;28;20123;-73
2021/05/08 06:30:23;;;;;;;13.57;7.93;;;8.80;99.90;;;;;;4193219;28;20078;-74
2021/05/08 06:32:24;;;;;;;13.20;8.10;;;8.90;99.90;;;;;;4190469;28;20035;-73
2021/05/08 06:34:25;;;;;;;10.75;7.47;;;8.90;99.90;;;;;;4189832;28;20043;-73
2021/05/08 06:36:26;;;;;;;9.85;7.07;;;9.00;99.90;;;;;;4193199;28;20059;-71
2021/05/08 06:38:26;;;;;;;9.75;6.70;;;9.10;99.90;;;;;;4193168;28;20047;-70
2021/05/08 06:40:28;;;;;;;11.00;7.25;;;9.20;99.90;;;;;;4192187;28;20028;-71
2021/05/08 06:42:28;;;;;;;11.38;7.50;;;9.30;99.90;;;;;;4189651;28;20028;-70
2021/05/08 06:44:29;;;;;;;11.10;7.47;;;9.30;99.90;;;;;;4192964;28;20354;-71
2021/05/08 06:46:30;;;;;;;11.63;7.75;;;9.40;99.90;;;;;;4193166;28;20060;-71
2021/05/08 06:48:30;;;;;;;12.45;7.60;;;9.40;99.90;;;;;;4198059;28;20456;-71
2021/05/08 06:50:31;;;;;;;11.57;7.32;;;9.40;99.90;;;;;;4195454;28;20048;-71
2021/05/08 06:52:32;;;;;;;10.63;7.30;;;9.50;99.90;;;;;;4190590;28;20028;-71
2021/05/08 06:54:32;;;;;;;11.60;7.57;;;9.50;99.90;;;;;;4194937;28;20082;-71
2021/05/08 06:56:33;;;;;;;10.73;7.30;;;9.50;99.90;;;;;;4193874;28;20067;-71
2021/05/08 06:58:34;;;;;;;10.15;7.35;;;9.50;99.90;;;;;;4196496;28;20107;-71
2021/05/08 07:00:34;;;;;;;9.70;6.45;;;9.60;99.90;;;;;;4192884;28;20047;-71
2021/05/08 07:02:35;;;;;;;8.77;5.95;;;9.60;99.90;;;;;;4194633;28;20066;-71
2021/05/08 07:04:35;;;;;;;10.80;6.55;;;9.70;99.90;;;;;;4194397;28;20664;-71
2021/05/08 07:06:36;;;;;;;10.95;6.60;;;9.70;99.90;;;;;;4177844;28;20033;-71
2021/05/08 07:08:36;;;;;;;9.90;6.35;;;9.70;99.90;;;;;;4194316;28;20112;-71
2021/05/08 07:10:45;;;;;;;9.35;6.00;;;9.80;99.90;;;;;;4189105;28;20036;-71
2021/05/08 07:12:45;;;;;;;10.18;6.32;;;9.80;99.90;;;;;;4189662;28;20464;-71
2021/05/08 07:14:46;;;;;;;9.20;6.13;;;9.80;99.90;;;;;;4195205;28;20032;-71
2021/05/08 07:16:47;;;;;;;8.00;5.25;;;9.90;99.90;;;;;;4195847;28;20031;-71
2021/05/08 07:18:47;;;;;;;9.05;5.90;;;9.90;99.90;;;;;;4195568;28;20045;-74
2021/05/08 07:20:48;;;;;;;7.65;5.53;;;10.00;99.90;;;;;;4193273;28;20056;-70
2021/05/08 07:22:49;;;;;;;8.50;5.95;;;10.00;99.90;;;;;;4195828;28;20036;-71
2021/05/08 07:24:49;;;;;;;14.15;6.20;;;10.10;99.90;;;;;;4196296;28;20056;-71
2021/05/08 07:26:50;;;;;;;9.00;5.63;;;10.10;99.90;;;;;;4195856;28;20029;-71
2021/05/08 07:28:50;;;;;;;7.32;5.50;;;10.10;99.90;;;;;;4191647;28;20037;-71
2021/05/08 07:30:54;;;;;;;9.30;5.82;;;10.20;99.90;;;;;;4193650;28;20085;-71
2021/05/08 07:32:54;;;;;;;8.55;5.88;;;10.20;99.90;;;;;;4193563;28;20157;-71
2021/05/08 07:34:55;;;;;;;9.25;5.43;;;10.20;99.90;;;;;;4191868;28;20060;-71
2021/05/08 07:36:55;;;;;;;12.60;5.57;;;10.20;99.90;;;;;;4195340;28;20032;-71
2021/05/08 07:38:56;;;;;;;9.65;5.30;;;10.30;99.90;;;;;;4193429;28;20064;-72
2021/05/08 07:40:57;;;;;;;10.85;6.20;;;10.30;99.90;;;;;;4193606;28;20074;-71
2021/05/08 07:42:59;;;;;;;8.82;5.15;;;10.30;99.90;;;;;;4193930;28;20531;-71
2021/05/08 07:44:59;;;;;;;10.00;5.00;;;10.40;99.90;;;;;;4191931;28;21190;-71
2021/05/08 07:47:01;;;;;;;6.95;5.22;;;10.40;99.90;;;;;;4194243;28;20035;-71
2021/05/08 07:49:02;;;;;;;9.98;5.43;;;10.50;99.90;;;;;;4176286;28;20036;-71
2021/05/08 07:51:02;;;;;;;8.10;5.18;;;10.50;99.90;;;;;;4190860;28;20499;-71
2021/05/08 07:53:03;;;;;;;7.30;5.32;;;10.60;99.90;;;;;;4193378;28;20033;-71
2021/05/08 07:55:04;;;;;;;8.05;4.70;;;10.60;99.90;;;;;;4193298;28;20029;-72
2021/05/08 07:57:05;;;;;;;8.18;4.57;;;10.60;99.90;;;;;;4195316;28;20469;-71
2021/05/08 07:59:06;;;;;;;7.80;5.13;;;10.60;99.90;;;;;;4189316;28;20089;-71
2021/05/08 08:01:06;;;;;;;7.57;4.40;;;10.70;99.90;;;;;;4192851;28;20043;-71
2021/05/08 08:03:07;;;;;;;5.60;4.22;;;10.80;99.90;;;;;;4192242;28;20158;-71
2021/05/08 08:05:09;;;;;;;7.13;4.22;;;10.80;99.90;;;;;;4195865;27;20063;-71
2021/05/08 08:07:09;;;;;;;8.73;4.97;;;10.80;99.90;;;;;;4189683;28;20036;-71
2021/05/08 08:09:10;;;;;;;9.15;5.35;;;10.90;99.90;;;;;;4192374;28;20584;-71
2021/05/08 08:11:10;;;;;;;8.60;5.20;;;10.90;99.90;;;;;;4192494;28;20036;-71
2021/05/08 08:13:11;;;;;;;9.13;4.65;;;11.00;99.90;;;;;;4192899;28;20044;-71
2021/05/08 08:15:12;;;;;;;11.32;5.28;;;11.00;99.90;;;;;;4190953;28;20667;-71
2021/05/08 08:17:13;;;;;;;11.00;4.93;;;11.10;99.90;;;;;;4193759;28;20067;-71
2021/05/08 08:19:14;;;;;;;7.80;4.90;;;11.10;99.90;;;;;;4194292;28;20051;-71
2021/05/08 08:21:15;;;;;;;9.45;4.50;;;11.10;99.90;;;;;;4191823;28;20097;-71
2021/05/08 08:23:16;;;;;;;10.55;5.03;;;11.20;99.90;;;;;;4188454;28;20056;-71
2021/05/08 08:25:17;;;;;;;8.98;5.10;;;11.20;99.90;;;;;;4194662;28;20086;-70
2021/05/08 08:27:17;;;;;;;11.52;5.15;;;11.30;99.90;;;;;;4192880;28;20041;-71
2021/05/08 08:29:18;;;;;;;8.63;4.85;;;11.30;99.90;;;;;;4195317;28;20507;-71
2021/05/08 08:31:19;;;;;;;7.82;4.90;;;11.40;99.90;;;;;;4192602;28;20038;-71
2021/05/08 08:33:19;;;;;;;8.15;4.93;;;11.40;99.90;;;;;;4191632;28;20044;-71
2021/05/08 08:35:20;;;;;;;7.85;4.40;;;11.50;99.90;;;;;;4190852;28;20037;-71
2021/05/08 08:37:21;;;;;;;9.80;4.20;;;11.50;99.90;;;;;;4189939;28;20032;-71
2021/05/08 08:39:22;;;;;;;8.70;4.47;;;11.60;99.90;;;;;;4193669;28;20036;-71
2021/05/08 08:41:23;;;;;;;6.30;4.30;;;11.60;99.90;;;;;;4198195;28;20039;-71
2021/05/08 08:43:24;;;;;;;10.38;4.55;;;11.70;99.90;;;;;;4192555;28;20049;-71
2021/05/08 08:45:25;;;;;;;11.60;4.57;;;11.70;99.90;;;;;;4191365;28;20199;-71
2021/05/08 08:47:29;;;;;;;11.93;4.85;;;11.80;99.90;;;;;;4194274;28;20048;-71
2021/05/08 08:49:31;;;;;;;8.27;4.15;;;11.80;99.90;;;;;;4192346;28;20032;-71
2021/05/08 08:51:31;;;;;;;7.60;4.35;;;11.90;99.90;;;;;;4190661;28;20130;-71
2021/05/08 08:53:33;;;;;;;8.43;4.50;;;11.90;99.90;;;;;;4190161;28;20059;-71
2021/05/08 08:55:35;;;;;;;9.95;4.70;;;12.00;99.90;;;;;;4192098;28;20676;-71
2021/05/08 08:57:45;;;;;;;5.65;3.65;;;12.00;99.90;;;;;;4194709;28;20115;-71
2021/05/08 08:59:46;;;;;;;7.32;3.97;;;12.10;99.90;;;;;;4195812;28;20067;-71
2021/05/08 09:01:47;;;;;;;6.78;4.18;;;12.10;99.90;;;;;;4195204;28;20132;-71
2021/05/08 09:03:48;;;;;;;9.07;4.18;;;12.20;99.90;;;;;;4191875;28;20028;-71
2021/05/08 09:05:49;;;;;;;6.93;4.10;;;12.30;99.90;;;;;;4192061;28;20079;-71
2021/05/08 09:07:51;;;;;;;10.18;4.78;;;12.40;99.90;;;;;;4190421;28;20039;-72
2021/05/08 09:09:51;;;;;;;9.03;4.10;;;12.40;99.90;;;;;;4189743;28;20040;-71
2021/05/08 09:11:56;;;;;;;7.40;4.40;;;12.50;99.90;;;;;;4195145;28;20526;-71
2021/05/08 09:14:26;;;;;;;9.13;5.00;;;12.60;99.90;;;;;;4193945;28;20154;-71
2021/05/08 09:16:26;;;;;;;10.23;4.65;;;12.70;99.90;;;;;;4189075;28;20036;-71
2021/05/08 09:18:36;;;;;;;6.18;3.95;;;12.80;99.90;;;;;;4191855;28;20635;-71
2021/05/08 09:20:54;;;;;;;10.10;4.72;;;13.00;99.90;;;;;;4194467;28;20036;-71
2021/05/08 09:22:55;;;;;;;9.98;4.78;;;13.10;99.90;;;;;;4186917;28;20580;-71
2021/05/08 09:24:59;;;;;;;11.27;5.38;;;13.20;99.90;;;;;;4190133;28;20040;-72
2021/05/08 09:27:00;;;;;;;10.07;4.50;;;13.30;99.90;;;;;;4191880;28;20599;-71
2021/05/08 09:29:01;;;;;;;10.85;4.78;;;13.30;99.90;;;;;;4190398;28;20044;-71
2021/05/08 09:31:03;;;;;;;8.18;4.72;;;13.40;99.90;;;;;;4191033;28;20052;-71
2021/05/08 09:33:04;;;;;;;11.98;5.13;;;13.50;99.90;;;;;;4190629;28;20049;-71
2021/05/08 09:35:14;;;;;;;10.13;4.97;;;13.60;99.90;;;;;;4192508;28;20040;-71
2021/05/08 09:37:18;;;;;;;8.45;4.28;;;13.60;99.90;;;;;;4193203;28;20032;-71
2021/05/08 09:39:32;;;;;;;7.43;4.43;;;13.70;99.90;;;;;;4191505;28;20036;-71
2021/05/08 09:41:46;;;;;;;8.85;4.60;;;13.70;99.90;;;;;;4191453;28;20028;-71
2021/05/08 09:43:47;;;;;;;8.43;4.35;;;13.80;99.90;;;;;;4195982;28;20031;-71
2021/05/08 09:45:52;;;;;;;8.95;4.22;;;13.80;99.90;;;;;;4192209;28;20131;-71
2021/05/08 09:47:54;;;;;;;8.93;4.38;;;13.90;99.90;;;;;;4191266;28;20028;-71
2021/05/08 09:49:58;;;;;;;8.68;4.80;;;14.10;99.90;;;;;;4192503;28;20485;-71
2021/05/08 09:51:59;;;;;;;9.50;4.63;;;14.10;98.30;;;;;;4191672;28;20041;-71
2021/05/08 09:54:03;;;;;;;7.68;4.65;;;14.20;99.30;;;;;;4191041;28;20060;-71
2021/05/08 09:56:03;;;;;;;9.20;4.80;;;14.30;98.00;;;;;;4189267;28;20025;-70
2021/05/08 09:58:08;;;;;;;15.48;4.97;;;14.40;97.60;;;;;;4192304;28;20043;-71
2021/05/08 10:00:35;;;;;;;9.55;4.60;;;14.50;97.50;;;;;;4191858;28;20045;-71
2021/05/08 10:02:35;;;;;;;7.03;4.30;;;14.60;95.90;;;;;;4189477;28;20116;-71
2021/05/08 10:04:45;;;;;;;10.70;4.97;;;14.70;96.00;;;;;;4190518;28;20468;-71
2021/05/08 10:07:04;;;;;;;11.30;4.45;;;14.70;96.60;;;;;;4188199;28;20041;-71
2021/05/08 10:09:04;;;;;;;11.48;4.60;;;14.90;95.70;;;;;;4189546;28;20480;-71
2021/05/08 10:11:05;;;;;;;8.80;4.20;;;14.90;94.50;;;;;;4190121;28;20045;-72
2021/05/08 10:13:11;;;;;;;6.63;4.30;;;14.90;95.00;;;;;;4192347;28;20617;-71
2021/05/08 10:15:12;;;;;;;6.70;4.40;;;15.00;94.50;;;;;;4189441;28;20036;-71
2021/05/08 10:17:15;;;;;;;9.55;3.50;;;15.00;93.40;;;;;;4190354;28;20025;-71
2021/05/08 10:19:17;;;;;;;7.20;3.65;;;15.00;91.30;;;;;;4192790;28;20044;-71
2021/05/08 10:21:18;;;;;;;8.00;3.83;;;15.10;90.80;;;;;;4199797;28;20040;-71
2021/05/08 10:23:19;;;;;;;8.00;3.17;;;15.10;90.10;;;;;;4196568;28;20359;-70
2021/05/08 10:25:20;;;;;;;7.50;3.90;;;15.10;91.00;;;;;;4192997;28;20046;-71
2021/05/08 10:27:21;;;;;;;7.38;3.75;;;15.10;88.70;;;;;;4196539;28;20059;-71
2021/05/08 10:29:22;;;;;;;8.50;3.78;;;15.10;90.20;;;;;;4194528;28;20033;-71
2021/05/08 10:31:22;;;;;;;7.93;3.55;;;15.20;90.20;;;;;;4195211;28;20028;-71
2021/05/08 10:33:24;;;;;;;7.68;3.45;;;15.20;87.40;;;;;;4195953;28;20032;-71